createdAt,value
2018-07-23T00:01:13.900Z,4.33
2018-07-23T00:03:42.251Z,3.90
2018-07-23T00:06:10.043Z,3.73
2018-07-23T00:08:37.857Z,3.53
2018-07-23T00:11:05.627Z,3.40
2018-07-23T00:13:33.362Z,4.57
2018-07-23T00:16:01.111Z,4.20
2018-07-23T00:18:28.871Z,4.13
2018-07-23T00:20:56.643Z,4.00
2018-07-23T00:23:24.452Z,3.37
2018-07-23T00:25:52.192Z,3.60
2018-07-23T00:28:19.985Z,3.87
2018-07-23T00:30:47.744Z,3.67
2018-07-23T00:33:15.534Z,4.10
2018-07-23T00:35:43.286Z,3.80
2018-07-23T00:38:11.044Z,4.13
2018-07-23T00:40:38.790Z,3.60
2018-07-23T00:43:06.672Z,3.73
2018-07-23T00:45:34.451Z,4.60
2018-07-23T00:48:02.219Z,4.33
2018-07-23T00:50:30.033Z,4.30
2018-07-23T00:52:57.830Z,6.20
2018-07-23T00:55:25.491Z,4.70
2018-07-23T00:57:53.287Z,4.93
2018-07-23T01:00:21.020Z,4.40
2018-07-23T01:02:48.807Z,3.90
2018-07-23T01:05:16.621Z,4.40
2018-07-23T01:07:44.444Z,4.00
2018-07-23T01:10:12.287Z,4.10
2018-07-23T01:12:40.116Z,4.63
2018-07-23T01:15:07.927Z,5.40
2018-07-23T01:17:35.702Z,4.47
2018-07-23T01:20:03.383Z,5.40
2018-07-23T01:22:31.184Z,5.07
2018-07-23T01:24:58.950Z,6.40
2018-07-23T01:27:26.681Z,5.47
2018-07-23T01:29:54.443Z,6.53
2018-07-23T01:32:22.826Z,6.80
2018-07-23T01:34:50.632Z,6.23
2018-07-23T01:37:18.743Z,6.40
2018-07-23T01:39:46.499Z,7.37
2018-07-23T01:42:14.170Z,8.47
2018-07-23T01:44:41.950Z,6.13
2018-07-23T01:47:10.622Z,6.67
2018-07-23T01:49:38.385Z,7.47
2018-07-23T01:52:06.146Z,7.07
2018-07-23T01:54:34.038Z,7.27
2018-07-23T01:57:01.842Z,7.90
2018-07-23T01:59:29.708Z,6.60
2018-07-23T02:01:57.469Z,8.70
2018-07-23T02:04:25.291Z,8.83
2018-07-23T02:06:53.055Z,8.50
2018-07-23T02:09:20.799Z,8.03
2018-07-23T02:11:48.426Z,7.40
2018-07-23T02:14:16.171Z,8.17
2018-07-23T02:16:43.939Z,7.57
2018-07-23T02:19:11.656Z,6.80
2018-07-23T02:21:39.412Z,7.73
2018-07-23T02:24:07.192Z,9.00
2018-07-23T02:26:34.812Z,8.87
2018-07-23T02:29:02.612Z,9.00
2018-07-23T02:31:30.399Z,10.00
2018-07-23T02:33:58.172Z,8.93
2018-07-23T02:36:25.875Z,9.50
2018-07-23T02:38:53.642Z,8.07
2018-07-23T02:41:21.367Z,8.40
2018-07-23T02:43:49.119Z,9.00
2018-07-23T02:46:16.927Z,10.73
2018-07-23T02:48:44.746Z,9.90
2018-07-23T02:51:12.335Z,9.50
2018-07-23T02:53:40.079Z,9.50
2018-07-23T02:56:07.911Z,9.67
2018-07-23T02:58:35.695Z,8.83
2018-07-23T03:01:03.520Z,10.93
2018-07-23T03:03:31.318Z,9.83
2018-07-23T03:05:59.418Z,9.20
2018-07-23T03:08:27.170Z,10.03
2018-07-23T03:10:54.900Z,9.33
2018-07-23T03:13:22.615Z,9.37
2018-07-23T03:15:50.346Z,9.43
2018-07-23T03:18:17.918Z,9.63
2018-07-23T03:20:45.695Z,9.77
2018-07-23T03:23:13.399Z,9.30
2018-07-23T03:25:41.207Z,10.17
2018-07-23T03:28:09.039Z,9.40
2018-07-23T03:30:36.840Z,9.33
2018-07-23T03:33:04.724Z,8.63
2018-07-23T03:35:32.539Z,9.37
2018-07-23T03:38:00.333Z,10.77
2018-07-23T03:40:28.102Z,9.60
2018-07-23T03:42:55.711Z,9.93
2018-07-23T03:45:23.488Z,9.87
2018-07-23T03:47:51.297Z,8.97
2018-07-23T03:50:19.043Z,9.63
2018-07-23T03:52:46.706Z,8.60
2018-07-23T03:55:14.318Z,10.60
2018-07-23T03:57:42.155Z,10.63
2018-07-23T04:00:09.982Z,13.67
2018-07-23T04:02:37.787Z,10.50
2018-07-23T04:05:06.292Z,10.37
2018-07-23T04:07:34.083Z,10.67
2018-07-23T04:10:01.975Z,10.60
2018-07-23T04:12:29.692Z,11.63
2018-07-23T04:14:57.880Z,10.50
2018-07-23T04:17:25.672Z,9.50
2018-07-23T04:19:53.464Z,10.50
2018-07-23T04:22:21.232Z,11.00
2018-07-23T04:24:48.995Z,11.10
2018-07-23T04:27:16.751Z,9.83
2018-07-23T04:29:44.402Z,10.27
2018-07-23T04:32:12.168Z,9.50
2018-07-23T04:34:39.942Z,10.80
2018-07-23T04:37:07.546Z,9.77
2018-07-23T04:39:35.366Z,10.47
2018-07-23T04:42:03.165Z,10.87
2018-07-23T04:44:30.943Z,9.47
2018-07-23T04:46:58.795Z,8.83
2018-07-23T04:49:26.598Z,10.50
2018-07-23T04:51:54.400Z,9.70
2018-07-23T04:54:22.235Z,9.97
2018-07-23T04:56:50.115Z,9.10
2018-07-23T04:59:17.988Z,10.13
2018-07-23T05:01:45.661Z,8.67
2018-07-23T05:04:13.437Z,9.70
2018-07-23T05:06:41.335Z,10.00
2018-07-23T05:09:10.943Z,10.90
2018-07-23T05:11:38.867Z,9.80
2018-07-23T05:14:07.152Z,9.50
2018-07-23T05:16:35.050Z,10.00
2018-07-23T05:19:02.891Z,11.47
2018-07-23T05:21:30.631Z,10.10
2018-07-23T05:23:58.299Z,9.90
2018-07-23T05:26:26.021Z,9.70
2018-07-23T05:28:53.768Z,10.93
2018-07-23T05:31:21.484Z,11.33
2018-07-23T05:33:49.231Z,9.80
2018-07-23T05:36:16.961Z,11.50
2018-07-23T05:38:44.744Z,10.83
2018-07-23T05:41:12.487Z,11.23
2018-07-23T05:43:40.225Z,12.50
2018-07-23T05:46:08.015Z,13.37
2018-07-23T05:48:35.733Z,14.03
2018-07-23T05:51:03.475Z,11.77
2018-07-23T05:53:31.250Z,13.87
2018-07-23T05:55:59.003Z,11.63
2018-07-23T05:58:26.802Z,12.37
2018-07-23T06:00:54.534Z,11.33
2018-07-23T06:03:22.295Z,12.50
2018-07-23T06:05:50.048Z,12.00
2018-07-23T06:08:17.860Z,12.63
2018-07-23T06:10:45.477Z,13.83
2018-07-23T06:13:13.255Z,13.20
2018-07-23T06:15:40.991Z,13.50
2018-07-23T06:18:08.850Z,12.37
2018-07-23T06:20:36.607Z,13.27
2018-07-23T06:23:04.363Z,13.40
2018-07-23T06:25:32.137Z,13.57
2018-07-23T06:27:59.904Z,14.43
2018-07-23T06:30:27.672Z,14.17
2018-07-23T06:32:55.504Z,13.97
2018-07-23T06:35:23.264Z,12.57
2018-07-23T06:37:51.007Z,12.97
2018-07-23T06:40:18.780Z,12.83
2018-07-23T06:42:46.499Z,12.23
2018-07-23T06:45:14.243Z,11.50
2018-07-23T06:47:41.963Z,11.60
2018-07-23T06:50:09.691Z,12.97
2018-07-23T06:52:37.415Z,11.87
2018-07-23T06:55:05.316Z,12.73
2018-07-23T06:57:33.021Z,15.13
2018-07-23T07:00:00.798Z,12.90
2018-07-23T07:02:28.530Z,11.70
2018-07-23T07:04:56.282Z,11.27
2018-07-23T07:07:24.039Z,13.33
2018-07-23T07:09:51.750Z,13.50
2018-07-23T07:12:19.519Z,12.83
2018-07-23T07:14:47.259Z,12.73
2018-07-23T07:17:14.986Z,11.67
2018-07-23T07:19:42.729Z,13.20
2018-07-23T07:22:10.379Z,12.40
2018-07-23T07:24:38.111Z,12.17
2018-07-23T07:27:05.852Z,12.23
2018-07-23T07:29:33.655Z,12.10
2018-07-23T07:32:01.387Z,10.03
2018-07-23T07:34:29.117Z,12.37
2018-07-23T07:36:56.738Z,12.30
2018-07-23T07:39:24.451Z,11.60
2018-07-23T07:41:52.188Z,11.60
2018-07-23T07:44:20.271Z,11.77
2018-07-23T07:46:48.031Z,10.57
2018-07-23T07:49:15.658Z,11.20
2018-07-23T07:51:43.372Z,11.73
2018-07-23T07:54:11.118Z,10.40
2018-07-23T07:56:38.846Z,10.33
2018-07-23T07:59:06.564Z,10.40
2018-07-23T08:01:34.331Z,12.73
2018-07-23T08:04:02.077Z,12.23
2018-07-23T08:06:29.813Z,12.90
2018-07-23T08:08:57.574Z,12.03
2018-07-23T08:11:25.321Z,11.20
2018-07-23T08:13:53.053Z,12.40
2018-07-23T08:16:20.804Z,11.00
2018-07-23T08:18:48.523Z,10.80
2018-07-23T08:21:16.257Z,11.27
2018-07-23T08:23:44.023Z,10.70
2018-07-23T08:26:11.751Z,9.80
2018-07-23T08:28:39.510Z,11.87
2018-07-23T08:31:07.252Z,12.03
2018-07-23T08:33:35.108Z,11.17
2018-07-23T08:36:02.931Z,10.17
2018-07-23T08:38:30.714Z,10.20
2018-07-23T08:40:58.427Z,8.70
2018-07-23T08:43:26.164Z,10.07
2018-07-23T08:45:53.965Z,10.53
2018-07-23T08:48:21.699Z,9.13
2018-07-23T08:50:49.418Z,9.60
2018-07-23T08:53:17.181Z,9.87
2018-07-23T08:55:44.983Z,8.30
2018-07-23T08:58:12.769Z,8.20
2018-07-23T09:00:40.510Z,8.77
2018-07-23T09:03:08.254Z,9.60
2018-07-23T09:05:36.023Z,10.90
2018-07-23T09:08:03.775Z,7.37
2018-07-23T09:10:31.374Z,7.87
2018-07-23T09:12:59.119Z,7.10
2018-07-23T09:15:26.843Z,5.40
2018-07-23T09:17:54.707Z,6.00
2018-07-23T09:20:22.436Z,6.40
2018-07-23T09:22:50.238Z,7.33
2018-07-23T09:25:17.815Z,8.50
2018-07-23T09:27:45.543Z,7.57
2018-07-23T09:30:19.017Z,6.87
2018-07-23T09:32:46.775Z,7.10
2018-07-23T09:35:14.520Z,8.27
2018-07-23T09:37:42.276Z,8.27
2018-07-23T09:40:10.072Z,9.27
2018-07-23T09:42:37.907Z,7.90
2018-07-23T09:45:05.663Z,7.33
2018-07-23T09:47:33.351Z,9.10
2018-07-23T09:50:01.179Z,8.00
2018-07-23T09:52:28.867Z,7.57
2018-07-23T09:54:56.598Z,6.63
2018-07-23T09:57:24.306Z,6.63
2018-07-23T09:59:52.031Z,6.67
2018-07-23T10:02:20.444Z,7.80
2018-07-23T10:04:48.259Z,6.73
2018-07-23T10:07:16.171Z,8.40
2018-07-23T10:09:43.843Z,5.73
2018-07-23T10:12:11.583Z,7.50
2018-07-23T10:14:39.364Z,6.57
2018-07-23T10:17:07.074Z,6.20
2018-07-23T10:19:34.751Z,7.50
2018-07-23T10:22:02.405Z,5.80
2018-07-23T10:24:30.087Z,7.07
2018-07-23T10:26:57.785Z,7.40
2018-07-23T10:29:25.490Z,5.80
2018-07-23T10:31:53.170Z,6.60
2018-07-23T10:34:20.912Z,5.60
2018-07-23T10:36:48.619Z,6.73
2018-07-23T10:39:16.183Z,5.93
2018-07-23T10:41:43.902Z,6.33
2018-07-23T10:44:11.595Z,6.33
2018-07-23T10:46:39.534Z,7.23
2018-07-23T10:49:07.227Z,6.63
2018-07-23T10:51:34.920Z,6.40
2018-07-23T10:54:02.617Z,6.20
2018-07-23T10:56:30.335Z,6.03
2018-07-23T10:58:57.930Z,5.50
2018-07-23T11:01:25.673Z,6.17
2018-07-23T11:03:53.431Z,6.13
2018-07-23T11:06:21.194Z,5.13
2018-07-23T11:08:49.197Z,5.40
2018-07-23T11:11:16.911Z,5.47
2018-07-23T11:13:44.654Z,5.40
2018-07-23T11:16:12.395Z,6.80
2018-07-23T11:18:40.183Z,6.60
2018-07-23T11:21:07.951Z,6.70
2018-07-23T11:23:35.779Z,6.10
2018-07-23T11:26:03.735Z,5.87
2018-07-23T11:28:31.583Z,6.17
2018-07-23T11:30:59.582Z,6.00
2018-07-23T11:33:27.289Z,6.27
2018-07-23T11:35:55.020Z,6.60
2018-07-23T11:38:22.743Z,6.40
2018-07-23T11:40:50.459Z,6.07
2018-07-23T11:43:18.169Z,8.00
2018-07-23T11:45:45.743Z,7.47
2018-07-23T11:48:13.446Z,7.03
2018-07-23T11:50:41.222Z,7.33
2018-07-23T11:53:08.890Z,8.40
2018-07-23T11:55:36.595Z,7.53
2018-07-23T11:58:04.567Z,6.80
2018-07-23T12:00:32.274Z,6.70
2018-07-23T12:02:59.971Z,7.27
2018-07-23T12:05:27.583Z,5.67
2018-07-23T12:07:55.306Z,7.07
2018-07-23T12:10:23.032Z,6.80
2018-07-23T12:12:50.695Z,7.87
2018-07-23T12:15:18.464Z,6.60
2018-07-23T12:17:46.171Z,7.33
2018-07-23T12:20:13.911Z,7.30
2018-07-23T12:22:41.471Z,5.70
2018-07-23T12:25:09.115Z,5.87
2018-07-23T12:27:36.848Z,6.60
2018-07-23T12:30:04.771Z,5.83
2018-07-23T12:32:32.380Z,6.27
2018-07-23T12:35:00.111Z,5.80
2018-07-23T12:37:27.857Z,8.03
2018-07-23T12:39:55.530Z,7.40
2018-07-23T12:42:23.283Z,7.87
2018-07-23T12:44:51.096Z,7.50
2018-07-23T12:47:18.856Z,7.00
2018-07-23T12:49:46.555Z,7.07
2018-07-23T12:52:14.325Z,5.80
2018-07-23T12:54:42.111Z,7.30
2018-07-23T12:57:10.390Z,6.27
2018-07-23T12:59:38.251Z,6.17
2018-07-23T13:02:06.036Z,5.70
2018-07-23T13:04:33.747Z,5.57
2018-07-23T13:07:01.464Z,5.60
2018-07-23T13:09:29.208Z,7.40
2018-07-23T13:11:56.797Z,6.43
2018-07-23T13:14:24.546Z,5.63
2018-07-23T13:16:52.289Z,6.53
2018-07-23T13:19:20.080Z,6.67
2018-07-23T13:21:47.815Z,6.00
2018-07-23T13:24:15.574Z,6.77
2018-07-23T13:26:43.311Z,6.37
2018-07-23T13:29:10.932Z,6.20
2018-07-23T13:31:39.982Z,5.93
2018-07-23T13:34:08.031Z,5.40
2018-07-23T13:36:35.816Z,6.20
2018-07-23T13:39:07.239Z,6.80
2018-07-23T13:41:35.655Z,5.20
2018-07-23T13:44:03.545Z,6.50
2018-07-23T13:46:31.391Z,6.27
2018-07-23T13:48:59.164Z,6.43
2018-07-23T13:51:26.858Z,7.30
2018-07-23T13:53:54.686Z,5.90
2018-07-23T13:56:22.474Z,5.63
2018-07-23T13:58:50.087Z,5.83
2018-07-23T14:01:17.828Z,5.70
2018-07-23T14:03:45.562Z,5.43
2018-07-23T14:06:13.152Z,5.17
2018-07-23T14:08:40.861Z,4.63
2018-07-23T14:11:08.586Z,5.40
2018-07-23T14:13:36.312Z,5.43
2018-07-23T14:16:04.153Z,6.00
2018-07-23T14:18:31.944Z,5.70
2018-07-23T14:20:59.709Z,5.20
2018-07-23T14:23:27.482Z,5.33
2018-07-23T14:25:55.243Z,5.20
2018-07-23T14:28:22.942Z,6.00
2018-07-23T14:30:50.690Z,4.40
2018-07-23T14:33:18.397Z,5.57
2018-07-23T14:35:46.115Z,6.03
2018-07-23T14:38:13.856Z,9.87
2018-07-23T14:40:41.455Z,4.90
2018-07-23T14:43:09.242Z,5.47
2018-07-23T14:45:36.978Z,5.17
2018-07-23T14:48:04.829Z,8.23
2018-07-23T14:50:32.579Z,5.20
2018-07-23T14:53:00.313Z,5.13
2018-07-23T14:55:28.133Z,4.73
2018-07-23T14:57:55.845Z,5.97
2018-07-23T15:00:23.601Z,5.80
2018-07-23T15:02:51.334Z,4.70
2018-07-23T15:05:19.086Z,4.70
2018-07-23T15:07:46.803Z,4.37
2018-07-23T15:10:14.518Z,4.77
2018-07-23T15:12:42.251Z,4.70
2018-07-23T15:15:09.868Z,4.80
2018-07-23T15:17:37.602Z,4.87
2018-07-23T15:20:05.351Z,4.00
2018-07-23T15:22:33.211Z,4.73
2018-07-23T15:25:00.949Z,4.60
2018-07-23T15:27:28.785Z,4.93
2018-07-23T15:29:56.540Z,5.63
2018-07-23T15:32:24.319Z,5.00
2018-07-23T15:34:52.074Z,5.80
2018-07-23T15:37:19.780Z,4.83
2018-07-23T15:39:47.576Z,4.37
2018-07-23T15:42:15.286Z,4.80
2018-07-23T15:44:43.453Z,5.00
2018-07-23T15:47:10.885Z,5.60
2018-07-23T15:49:38.739Z,5.17
2018-07-23T15:52:06.671Z,5.80
2018-07-23T15:54:34.374Z,5.60
2018-07-23T15:57:02.107Z,7.40
2018-07-23T15:59:29.698Z,5.33
2018-07-23T16:01:57.416Z,4.87
2018-07-23T16:04:25.119Z,5.30
2018-07-23T16:06:52.842Z,4.70
2018-07-23T16:09:20.544Z,5.53
2018-07-23T16:11:48.324Z,5.43
2018-07-23T16:14:16.315Z,6.60
2018-07-23T16:16:44.012Z,5.73
2018-07-23T16:19:11.727Z,5.27
2018-07-23T16:21:39.475Z,4.90
2018-07-23T16:24:07.213Z,3.73
2018-07-23T16:26:34.969Z,4.20
2018-07-23T16:29:02.776Z,4.70
2018-07-23T16:31:30.472Z,4.77
2018-07-23T16:33:58.190Z,4.30
2018-07-23T16:36:25.920Z,4.70
2018-07-23T16:38:53.689Z,4.83
2018-07-23T16:41:21.421Z,4.87
2018-07-23T16:43:49.143Z,4.90
2018-07-23T16:46:16.992Z,4.50
2018-07-23T16:48:44.712Z,4.73
2018-07-23T16:51:12.447Z,4.00
2018-07-23T16:53:40.126Z,4.30
2018-07-23T16:56:07.848Z,5.27
2018-07-23T16:58:35.551Z,5.50
2018-07-23T17:01:03.280Z,4.63
2018-07-23T17:03:30.851Z,4.63
2018-07-23T17:05:58.556Z,5.00
2018-07-23T17:08:26.244Z,5.40
2018-07-23T17:10:54.008Z,5.30
2018-07-23T17:13:21.691Z,5.53
2018-07-23T17:15:49.434Z,5.40
2018-07-23T17:18:17.147Z,5.03
2018-07-23T17:20:44.891Z,5.30
2018-07-23T17:23:12.603Z,5.20
2018-07-23T17:25:40.296Z,4.43
2018-07-23T17:28:08.011Z,4.50
2018-07-23T17:30:35.714Z,4.00
2018-07-23T17:33:03.485Z,4.77
2018-07-23T17:35:31.246Z,4.60
2018-07-23T17:37:58.947Z,4.83
2018-07-23T17:40:26.690Z,4.63
2018-07-23T17:42:54.415Z,4.30
2018-07-23T17:45:22.149Z,4.60
2018-07-23T17:47:49.906Z,5.43
2018-07-23T17:50:17.674Z,4.87
2018-07-23T17:52:45.367Z,4.97
2018-07-23T17:55:13.173Z,5.33
2018-07-23T17:57:40.859Z,4.53
2018-07-23T18:00:08.718Z,5.53
2018-07-23T18:02:36.451Z,4.90
2018-07-23T18:05:04.207Z,4.30
2018-07-23T18:07:31.923Z,4.80
2018-07-23T18:09:59.609Z,5.10
2018-07-23T18:12:27.336Z,5.70
2018-07-23T18:14:55.035Z,4.67
2018-07-23T18:17:22.762Z,4.97
2018-07-23T18:19:50.443Z,5.87
2018-07-23T18:22:19.138Z,5.23
2018-07-23T18:24:46.872Z,4.90
2018-07-23T18:27:14.573Z,5.80
2018-07-23T18:29:42.312Z,6.47
2018-07-23T18:32:10.156Z,5.60
2018-07-23T18:34:38.209Z,5.33
2018-07-23T18:37:06.004Z,5.83
2018-07-23T18:39:33.565Z,5.30
2018-07-23T18:42:01.299Z,6.37
2018-07-23T18:44:29.011Z,5.60
2018-07-23T18:46:57.031Z,6.13
2018-07-23T18:49:37.590Z,6.53
2018-07-23T18:52:05.399Z,5.90
2018-07-23T18:54:33.785Z,6.77
2018-07-23T18:57:02.761Z,7.27
2018-07-23T18:59:30.610Z,6.33
2018-07-23T19:01:58.782Z,6.73
2018-07-23T19:04:26.539Z,8.70
2018-07-23T19:06:54.307Z,7.13
2018-07-23T19:09:23.215Z,5.90
2018-07-23T19:11:51.821Z,8.00
2018-07-23T19:14:19.770Z,6.03
2018-07-23T19:16:48.362Z,9.50
2018-07-23T19:19:16.109Z,11.03
2018-07-23T19:21:43.827Z,9.60
2018-07-23T19:24:11.629Z,7.20
2018-07-23T19:26:39.408Z,8.30
2018-07-23T19:29:06.998Z,8.17
2018-07-23T19:31:34.730Z,7.80
2018-07-23T19:34:03.335Z,7.70
2018-07-23T19:36:31.180Z,9.00
2018-07-23T19:38:59.064Z,8.70
2018-07-23T19:41:27.379Z,8.40
2018-07-23T19:43:54.958Z,7.10
2018-07-23T19:46:22.846Z,7.40
2018-07-23T19:48:50.570Z,8.47
2018-07-23T19:51:18.307Z,11.70
2018-07-23T19:53:46.004Z,8.23
2018-07-23T19:56:13.751Z,8.67
2018-07-23T19:58:41.979Z,8.20
2018-07-23T20:01:09.975Z,9.33
2018-07-23T20:03:37.727Z,8.80
2018-07-23T20:06:05.541Z,7.77
2018-07-23T20:08:33.253Z,7.43
2018-07-23T20:11:00.866Z,7.50
2018-07-23T20:13:28.645Z,10.80
2018-07-23T20:15:56.904Z,8.40
2018-07-23T20:18:24.663Z,8.57
2018-07-23T20:20:52.557Z,9.80
2018-07-23T20:23:20.347Z,9.50
2018-07-23T20:25:48.010Z,8.03
2018-07-23T20:28:15.748Z,8.57
2018-07-23T20:30:43.523Z,9.97
2018-07-23T20:33:11.379Z,8.33
2018-07-23T20:35:39.251Z,8.87
2018-07-23T20:38:07.044Z,8.60
2018-07-23T20:40:34.674Z,8.83
2018-07-23T20:43:02.494Z,9.40
2018-07-23T20:45:30.350Z,10.17
2018-07-23T20:47:58.314Z,10.83
2018-07-23T20:50:26.176Z,10.60
2018-07-23T20:52:53.763Z,9.83
2018-07-23T20:55:21.619Z,9.77
2018-07-23T20:57:49.387Z,9.70
2018-07-23T21:00:17.368Z,10.50
2018-07-23T21:02:45.084Z,10.47
2018-07-23T21:05:13.027Z,9.77
2018-07-23T21:07:40.779Z,11.80
2018-07-23T21:10:08.479Z,10.57
2018-07-23T21:12:36.224Z,11.37
2018-07-23T21:15:05.180Z,9.30
2018-07-23T21:17:32.795Z,11.03
2018-07-23T21:20:00.421Z,10.47
2018-07-23T21:22:28.212Z,9.30
2018-07-23T21:24:55.991Z,9.73
2018-07-23T21:27:23.746Z,9.80
2018-07-23T21:29:51.543Z,9.07
2018-07-23T21:32:19.187Z,9.13
2018-07-23T21:34:47.035Z,8.70
2018-07-23T21:37:14.763Z,9.40
2018-07-23T21:39:42.808Z,9.60
2018-07-23T21:42:10.584Z,8.93
2018-07-23T21:44:38.631Z,11.57
2018-07-23T21:47:06.274Z,10.80
2018-07-23T21:49:34.053Z,10.83
2018-07-23T21:52:01.802Z,12.10
2018-07-23T21:54:29.470Z,12.20
2018-07-23T21:56:57.221Z,11.23
2018-07-23T21:59:25.011Z,12.40
2018-07-23T22:01:52.672Z,11.60
2018-07-23T22:04:20.393Z,11.00
2018-07-23T22:06:48.227Z,12.30
2018-07-23T22:09:15.984Z,10.33
2018-07-23T22:11:43.792Z,10.97
2018-07-23T22:14:11.523Z,9.23
2018-07-23T22:16:39.297Z,10.40
2018-07-23T22:19:07.142Z,12.03
2018-07-23T22:21:34.911Z,10.50
2018-07-23T22:24:02.659Z,10.80
2018-07-23T22:26:30.330Z,10.73
2018-07-23T22:28:58.121Z,9.80
2018-07-23T22:31:25.893Z,10.03
2018-07-23T22:33:53.671Z,10.80
2018-07-23T22:36:21.473Z,9.53
2018-07-23T22:38:49.184Z,11.33
2018-07-23T22:41:16.896Z,10.63
2018-07-23T22:43:44.638Z,11.47
2018-07-23T22:46:12.345Z,9.50
2018-07-23T22:48:40.342Z,9.80
2018-07-23T22:51:08.091Z,10.13
2018-07-23T22:53:35.804Z,10.40
2018-07-23T22:56:03.551Z,10.40
2018-07-23T22:58:31.492Z,9.93
2018-07-23T23:00:59.295Z,9.97
2018-07-23T23:03:27.022Z,10.40
2018-07-23T23:05:54.809Z,10.33
2018-07-23T23:08:22.559Z,9.13
2018-07-23T23:10:50.291Z,11.37
2018-07-23T23:13:17.927Z,10.70
2018-07-23T23:15:45.618Z,11.60
2018-07-23T23:18:13.227Z,12.20
2018-07-23T23:20:40.928Z,12.00
2018-07-23T23:23:08.623Z,13.00
2018-07-23T23:25:36.377Z,11.97
2018-07-23T23:28:03.968Z,11.10
2018-07-23T23:30:31.735Z,10.20
2018-07-23T23:32:59.442Z,10.30
2018-07-23T23:35:27.202Z,10.67
2018-07-23T23:37:54.975Z,12.30
2018-07-23T23:40:22.755Z,13.50
2018-07-23T23:42:50.494Z,11.13
2018-07-23T23:45:18.212Z,12.03
2018-07-23T23:47:45.931Z,12.97
2018-07-23T23:50:13.666Z,11.70
2018-07-23T23:52:41.459Z,10.93
2018-07-23T23:55:09.209Z,11.97
2018-07-23T23:57:36.957Z,10.77
